Time;durP1;ratioP1;P1;durP2;ratioP2;P2;SDS_P1;SDS_P2;PMS_P1;PMS_P2;Temp;Humidity;BMP_temperature;BMP_pressure;BME280_temperature;BME280_humidity;BME280_pressure;Samples;Min_cycle;Max_cycle;Signal;HPM_P1;HPM_P2
2022/12/18 00:02:36;;;;;;;43.03;19.47;;;-2.90;97.90;;;;;;5013090;28;20573;-81
2022/12/18 00:05:12;;;;;;;41.97;19.07;;;-2.90;97.80;;;;;;5006687;28;20223;-81
2022/12/18 00:08:04;;;;;;;39.17;19.67;;;-2.90;97.90;;;;;;5014101;28;20203;-82
2022/12/18 00:11:18;;;;;;;40.17;18.73;;;-2.90;97.70;;;;;;5001629;28;20208;-82
2022/12/18 00:13:56;;;;;;;39.50;18.83;;;-2.90;97.50;;;;;;5013522;28;20353;-81
2022/12/18 00:16:27;;;;;;;47.90;20.47;;;-2.90;97.40;;;;;;5007766;28;20691;-83
2022/12/18 00:19:07;;;;;;;47.13;21.20;;;-2.90;97.30;;;;;;5006863;28;20382;-81
2022/12/18 00:21:36;;;;;;;45.03;20.87;;;-3.10;97.20;;;;;;5011431;28;20203;-81
2022/12/18 00:24:07;;;;;;;45.50;22.00;;;-3.10;97.50;;;;;;5009605;28;20318;-81
2022/12/18 00:26:38;;;;;;;48.00;22.50;;;-3.10;97.50;;;;;;5010382;28;20270;-81
2022/12/18 00:29:14;;;;;;;46.70;20.93;;;-3.00;97.60;;;;;;5008791;28;20283;-81
2022/12/18 00:31:56;;;;;;;46.33;21.40;;;-3.20;97.60;;;;;;5007095;28;20214;-81
2022/12/18 00:34:54;;;;;;;45.83;21.00;;;-3.10;98.00;;;;;;5003350;28;20243;-81
2022/12/18 00:37:30;;;;;;;46.27;20.20;;;-3.00;97.80;;;;;;5013955;28;20213;-82
2022/12/18 00:39:57;;;;;;;39.77;18.80;;;-3.00;97.50;;;;;;5011131;28;20202;-81
2022/12/18 00:46:01;;;;;;;40.90;18.00;;;-3.20;97.90;;;;;;5011515;28;20195;-81
2022/12/18 00:48:38;;;;;;;42.97;18.27;;;-3.00;98.10;;;;;;5013463;28;20299;-81
2022/12/18 00:51:38;;;;;;;44.83;19.80;;;-3.00;97.90;;;;;;5012480;28;20706;-81
2022/12/18 00:54:06;;;;;;;40.63;18.60;;;-3.00;97.70;;;;;;5014617;28;20569;-81
2022/12/18 00:56:38;;;;;;;39.87;18.83;;;-3.00;97.80;;;;;;5008681;28;20257;-81
2022/12/18 00:59:19;;;;;;;47.90;18.93;;;-3.00;98.20;;;;;;5012396;28;20939;-81
2022/12/18 01:01:48;;;;;;;39.73;18.67;;;-3.00;97.60;;;;;;5011673;28;20197;-81
2022/12/18 01:04:17;;;;;;;39.10;18.93;;;-3.00;97.40;;;;;;5017876;28;20218;-83
2022/12/18 01:06:47;;;;;;;38.23;18.33;;;-3.20;97.70;;;;;;5013364;28;20661;-82
2022/12/18 01:09:30;;;;;;;42.10;18.77;;;-3.00;97.70;;;;;;5014289;28;20211;-83
2022/12/18 01:12:07;;;;;;;44.40;19.50;;;-3.10;97.60;;;;;;5007301;28;20310;-81
2022/12/18 01:18:24;;;;;;;40.90;19.17;;;-3.20;97.60;;;;;;5003357;28;20219;-82
2022/12/18 01:21:10;;;;;;;42.73;19.13;;;-3.10;97.40;;;;;;5010906;28;20286;-81
2022/12/18 01:24:00;;;;;;;36.83;17.87;;;-3.10;97.60;;;;;;5011106;28;20299;-82
2022/12/18 01:27:06;;;;;;;39.83;19.10;;;-3.10;97.50;;;;;;5008972;28;20297;-82
2022/12/18 01:32:55;;;;;;;38.97;18.73;;;-3.20;97.40;;;;;;5007270;28;20201;-82
2022/12/18 01:35:24;;;;;;;42.63;19.37;;;-3.30;97.50;;;;;;5009219;28;20208;-81
2022/12/18 01:42:01;;;;;;;40.93;19.43;;;-3.10;97.50;;;;;;4999990;28;20242;-81
2022/12/18 01:45:12;;;;;;;42.83;19.97;;;-3.10;97.50;;;;;;5016264;28;20257;-82
2022/12/18 01:51:36;;;;;;;43.40;19.57;;;-3.00;97.10;;;;;;5008972;28;20193;-81
2022/12/18 01:54:19;;;;;;;40.53;20.57;;;-3.00;97.10;;;;;;5012424;28;20233;-82
2022/12/18 01:57:02;;;;;;;45.37;21.43;;;-3.10;97.40;;;;;;5013598;28;20206;-83
2022/12/18 02:00:01;;;;;;;45.57;19.80;;;-3.20;97.40;;;;;;5025161;28;20235;-81
2022/12/18 02:02:54;;;;;;;39.30;18.97;;;-3.10;97.30;;;;;;5013732;28;20226;-81
2022/12/18 02:05:44;;;;;;;40.87;20.17;;;-3.10;97.30;;;;;;4998536;28;20224;-81
2022/12/18 02:12:00;;;;;;;42.93;20.23;;;-3.20;97.40;;;;;;5003903;28;20239;-81
2022/12/18 02:15:06;;;;;;;42.17;20.30;;;-3.10;97.80;;;;;;5008691;28;20307;-81
2022/12/18 02:17:55;;;;;;;46.10;20.27;;;-3.10;97.60;;;;;;5007803;28;20269;-81
2022/12/18 02:20:45;;;;;;;44.90;20.73;;;-3.00;97.30;;;;;;5010762;28;20213;-81
2022/12/18 02:23:49;;;;;;;43.87;20.53;;;-2.80;96.90;;;;;;5006836;28;20674;-81
2022/12/18 02:26:50;;;;;;;45.23;20.33;;;-2.80;96.80;;;;;;5007609;28;20290;-85
2022/12/18 02:29:36;;;;;;;44.43;20.83;;;-3.00;96.70;;;;;;5010832;28;20199;-82
2022/12/18 02:32:26;;;;;;;103.83;50.23;;;-2.70;98.00;;;;;;5012043;28;20289;-83
2022/12/18 02:35:13;;;;;;;45.83;22.63;;;-2.70;98.60;;;;;;5008575;28;20203;-81
2022/12/18 02:41:04;;;;;;;76.47;35.87;;;-2.90;97.70;;;;;;5005272;28;20265;-81
2022/12/18 02:43:47;;;;;;;54.77;24.97;;;-2.60;99.40;;;;;;5007378;28;20213;-81
2022/12/18 02:46:29;;;;;;;53.03;23.87;;;-2.70;98.50;;;;;;5010264;28;20215;-82
2022/12/18 02:49:33;;;;;;;42.77;20.53;;;-2.60;97.10;;;;;;5003858;28;20200;-82
2022/12/18 02:52:32;;;;;;;50.97;21.97;;;-2.70;96.10;;;;;;5011649;28;20230;-82
2022/12/18 02:58:29;;;;;;;42.73;20.77;;;-2.70;97.50;;;;;;5011043;28;20248;-82
2022/12/18 03:01:29;;;;;;;48.53;21.83;;;-2.80;96.80;;;;;;5003529;28;20537;-82
2022/12/18 03:04:22;;;;;;;48.17;22.30;;;-2.80;97.00;;;;;;5010740;28;20217;-81
2022/12/18 03:07:11;;;;;;;42.23;21.10;;;-2.70;97.50;;;;;;5012025;28;20203;-81
2022/12/18 03:09:43;;;;;;;50.27;22.57;;;-2.80;96.70;;;;;;5014510;28;20200;-81
2022/12/18 03:13:00;;;;;;;48.73;22.17;;;-2.90;96.50;;;;;;5010227;28;20679;-81
2022/12/18 03:15:35;;;;;;;45.67;20.77;;;-3.00;96.80;;;;;;5011658;28;20289;-81
2022/12/18 03:18:19;;;;;;;48.13;21.87;;;-2.90;96.80;;;;;;5012362;28;20215;-82
2022/12/18 03:21:13;;;;;;;45.53;21.17;;;-3.00;96.80;;;;;;5018841;28;20286;-81
2022/12/18 03:23:48;;;;;;;47.27;21.03;;;-3.10;97.20;;;;;;5010165;28;20218;-81
2022/12/18 03:26:28;;;;;;;45.57;21.20;;;-3.00;97.80;;;;;;5009835;28;20230;-81
2022/12/18 03:29:13;;;;;;;46.77;21.67;;;-2.80;97.30;;;;;;5011729;28;20197;-81
2022/12/18 03:32:03;;;;;;;47.50;21.97;;;-2.80;96.90;;;;;;5009771;28;20203;-81
2022/12/18 03:34:48;;;;;;;46.87;22.07;;;-2.80;96.80;;;;;;5004764;28;20682;-81
2022/12/18 03:37:30;;;;;;;47.63;22.60;;;-2.80;96.60;;;;;;4994761;28;20633;-82
2022/12/18 03:40:13;;;;;;;49.97;22.00;;;-3.00;97.00;;;;;;5013613;28;20281;-81
2022/12/18 03:42:53;;;;;;;40.97;20.93;;;-3.00;97.30;;;;;;5020233;28;20205;-81
2022/12/18 03:45:35;;;;;;;47.80;21.87;;;-3.10;97.20;;;;;;5010875;28;20268;-81
2022/12/18 03:48:28;;;;;;;50.90;22.20;;;-3.00;96.90;;;;;;5006288;28;20206;-82
2022/12/18 03:51:10;;;;;;;46.33;21.23;;;-2.80;97.80;;;;;;5006525;28;20298;-81
2022/12/18 03:54:03;;;;;;;46.33;20.90;;;-2.80;96.80;;;;;;5007484;28;20222;-81
2022/12/18 03:57:18;;;;;;;41.60;20.47;;;-2.60;96.60;;;;;;5012573;28;20211;-81
2022/12/18 03:59:46;;;;;;;42.07;20.87;;;-2.70;96.10;;;;;;5012787;28;20295;-81
2022/12/18 04:02:39;;;;;;;48.93;22.00;;;-2.80;96.30;;;;;;5011377;28;20203;-82
2022/12/18 04:05:14;;;;;;;45.47;22.47;;;-2.80;96.60;;;;;;5004982;28;20303;-81
2022/12/18 04:25:12;;;;;;;44.83;21.73;;;-3.00;96.40;;;;;;5005055;28;20290;-81
2022/12/18 04:27:50;;;;;;;46.50;21.27;;;-3.00;96.70;;;;;;5015324;28;20195;-80
2022/12/18 04:30:54;;;;;;;46.97;21.63;;;-3.10;96.60;;;;;;5015338;28;20191;-82
2022/12/18 04:33:31;;;;;;;39.00;19.50;;;-3.10;96.90;;;;;;5011050;28;20198;-82
2022/12/18 04:35:59;;;;;;;39.10;19.63;;;-3.00;96.90;;;;;;5011833;28;20239;-85
2022/12/18 04:42:06;;;;;;;43.87;19.70;;;-3.00;96.40;;;;;;5012634;28;20277;-81
2022/12/18 04:48:14;;;;;;;42.97;19.63;;;-3.00;97.10;;;;;;5014542;28;20261;-83
2022/12/18 04:50:49;;;;;;;41.40;20.03;;;-3.00;96.90;;;;;;5007345;28;20230;-81
2022/12/18 04:53:36;;;;;;;37.03;18.43;;;-2.90;96.60;;;;;;5011122;28;20631;-83
2022/12/18 04:56:36;;;;;;;37.73;17.57;;;-3.10;96.40;;;;;;5021518;28;20282;-84
2022/12/18 05:03:12;;;;;;;36.97;17.47;;;-3.00;96.30;;;;;;5011840;28;20222;-83
2022/12/18 05:05:44;;;;;;;36.37;18.23;;;-3.00;96.30;;;;;;5016582;28;20697;-83
2022/12/18 05:09:06;;;;;;;34.93;17.60;;;-2.80;96.90;;;;;;5018607;28;20211;-83
2022/12/18 05:12:06;;;;;;;38.57;17.27;;;-2.70;96.50;;;;;;5007559;28;20278;-84
2022/12/18 05:14:37;;;;;;;35.77;18.47;;;-3.10;96.00;;;;;;5007546;28;20212;-83
2022/12/18 05:17:04;;;;;;;34.67;17.40;;;-3.00;96.70;;;;;;5008113;28;20570;-83
2022/12/18 05:19:43;;;;;;;38.63;18.37;;;-3.00;96.00;;;;;;5006127;28;20260;-83
2022/12/18 05:23:06;;;;;;;40.17;19.33;;;-3.00;96.40;;;;;;5001382;28;20672;-84
2022/12/18 05:25:56;;;;;;;35.97;17.73;;;-3.00;96.30;;;;;;5003016;28;20225;-83
2022/12/18 05:29:18;;;;;;;35.73;17.90;;;-3.20;96.30;;;;;;5008045;28;20199;-83
2022/12/18 05:31:48;;;;;;;38.47;18.13;;;-3.10;96.80;;;;;;5005039;28;20228;-84
2022/12/18 05:34:19;;;;;;;37.00;17.77;;;-3.00;96.40;;;;;;5004625;28;20207;-84
2022/12/18 05:40:45;;;;;;;38.23;18.00;;;-3.00;96.00;;;;;;5004844;28;20193;-83
2022/12/18 05:43:49;;;;;;;35.23;17.23;;;-3.10;96.00;;;;;;5017809;28;20217;-83
2022/12/18 05:57:18;;;;;;;35.37;16.00;;;-3.00;96.00;;;;;;5009458;28;21061;-84
2022/12/18 06:00:15;;;;;;;35.97;16.70;;;-3.10;95.70;;;;;;5003745;28;20264;-83
2022/12/18 06:06:36;;;;;;;35.87;17.00;;;-3.20;96.00;;;;;;5001809;28;20230;-83
2022/12/18 06:09:13;;;;;;;38.90;17.00;;;-3.10;96.00;;;;;;5012429;28;20202;-83
2022/12/18 06:15:26;;;;;;;35.47;17.33;;;-3.30;96.20;;;;;;5023657;28;20194;-84
2022/12/18 06:17:55;;;;;;;34.73;16.93;;;-3.30;96.50;;;;;;5013134;28;20247;-84
2022/12/18 06:24:24;;;;;;;32.87;17.07;;;-3.20;96.40;;;;;;5013568;28;20223;-84
2022/12/18 06:31:00;;;;;;;31.77;15.53;;;-3.10;96.20;;;;;;5025480;28;20344;-84
2022/12/18 06:40:14;;;;;;;32.57;15.83;;;-3.20;96.00;;;;;;4994241;28;20628;-83
2022/12/18 06:42:42;;;;;;;34.20;16.43;;;-3.30;96.20;;;;;;5002483;28;20203;-83
2022/12/18 06:45:10;;;;;;;35.57;17.33;;;-3.40;96.10;;;;;;5011133;28;20227;-83
2022/12/18 06:47:37;;;;;;;33.17;16.87;;;-3.30;96.10;;;;;;5012898;28;20194;-84
2022/12/18 06:50:43;;;;;;;33.93;16.83;;;-3.30;95.90;;;;;;5012578;28;20195;-83
2022/12/18 06:53:19;;;;;;;36.23;17.13;;;-3.40;96.20;;;;;;5006043;28;20245;-84
2022/12/18 06:55:47;;;;;;;38.33;17.67;;;-3.30;96.30;;;;;;5006226;28;20226;-84
2022/12/18 06:58:19;;;;;;;37.73;17.40;;;-3.20;96.00;;;;;;5012088;28;20600;-83
2022/12/18 07:01:07;;;;;;;37.20;18.20;;;-3.40;95.80;;;;;;5011426;28;20571;-84
2022/12/18 07:03:43;;;;;;;36.23;17.20;;;-3.50;95.90;;;;;;5007345;28;20200;-84
2022/12/18 07:06:15;;;;;;;34.43;17.33;;;-3.50;96.10;;;;;;5011820;28;20320;-84
2022/12/18 07:15:28;;;;;;;36.10;17.13;;;-3.50;96.00;;;;;;5012340;28;20736;-84
2022/12/18 07:17:54;;;;;;;36.13;16.13;;;-3.40;96.30;;;;;;5012985;28;20207;-84
2022/12/18 07:20:54;;;;;;;35.70;16.93;;;-3.40;96.30;;;;;;5010906;28;20294;-84
2022/12/18 07:24:13;;;;;;;35.37;17.03;;;-3.40;95.80;;;;;;5015816;28;20214;-84
2022/12/18 07:27:12;;;;;;;31.33;15.70;;;-3.30;95.90;;;;;;5008573;28;20310;-84
2022/12/18 07:29:49;;;;;;;34.27;16.47;;;-3.30;95.70;;;;;;5014468;28;20211;-84
2022/12/18 07:32:17;;;;;;;38.40;16.77;;;-3.30;95.70;;;;;;5009801;28;20246;-84
2022/12/18 07:38:13;;;;;;;35.27;16.57;;;-3.30;95.70;;;;;;5009386;28;20205;-84
2022/12/18 07:41:08;;;;;;;33.23;17.30;;;-3.30;95.80;;;;;;5004842;28;20660;-84
2022/12/18 07:43:35;;;;;;;32.37;16.37;;;-3.30;95.70;;;;;;5005547;28;20297;-84
2022/12/18 07:46:42;;;;;;;34.43;17.00;;;-3.30;95.70;;;;;;5013425;28;20225;-83
2022/12/18 07:49:37;;;;;;;31.20;15.87;;;-3.20;96.10;;;;;;5011754;28;20199;-84
2022/12/18 07:52:07;;;;;;;36.30;16.87;;;-3.20;95.80;;;;;;5013006;28;20225;-84
2022/12/18 07:58:36;;;;;;;29.47;14.77;;;-3.20;95.80;;;;;;5016857;28;20221;-84
2022/12/18 08:01:42;;;;;;;32.00;14.70;;;-3.30;95.10;;;;;;5005764;28;20226;-83
2022/12/18 08:04:58;;;;;;;33.90;16.73;;;-3.20;95.00;;;;;;5012188;28;20291;-84
2022/12/18 08:07:50;;;;;;;31.37;15.50;;;-3.40;95.10;;;;;;5015662;28;20195;-84
2022/12/18 08:10:42;;;;;;;32.93;16.30;;;-3.30;95.30;;;;;;5010157;28;20210;-83
2022/12/18 08:16:31;;;;;;;29.60;14.97;;;-3.30;95.30;;;;;;5009056;28;20209;-84
2022/12/18 08:19:07;;;;;;;32.20;14.80;;;-3.20;95.10;;;;;;5018837;28;20202;-83
2022/12/18 08:22:30;;;;;;;32.00;15.40;;;-3.40;95.20;;;;;;4996414;28;20211;-84
2022/12/18 08:25:42;;;;;;;32.33;14.80;;;-3.40;95.90;;;;;;5011821;28;20290;-83
2022/12/18 08:28:32;;;;;;;31.90;15.63;;;-3.30;95.30;;;;;;5003864;28;20249;-84
2022/12/18 08:30:59;;;;;;;29.17;15.60;;;-3.20;95.10;;;;;;5007642;28;20297;-83
2022/12/18 08:33:31;;;;;;;32.23;15.90;;;-3.00;94.90;;;;;;5004879;28;20335;-83
2022/12/18 08:35:59;;;;;;;30.00;15.70;;;-3.30;95.00;;;;;;5005224;28;21018;-84
2022/12/18 08:44:40;;;;;;;28.20;15.23;;;-2.70;94.80;;;;;;5005547;28;20203;-81
2022/12/18 08:47:25;;;;;;;32.07;14.90;;;-2.70;93.70;;;;;;5003166;28;20219;-84
2022/12/18 08:50:19;;;;;;;29.87;14.97;;;-3.00;93.40;;;;;;5011307;28;20974;-83
2022/12/18 08:53:18;;;;;;;29.10;14.63;;;-3.00;94.00;;;;;;5008485;28;20664;-87
2022/12/18 08:56:01;;;;;;;28.60;14.47;;;-3.00;94.20;;;;;;5004504;28;20200;-85
2022/12/18 09:02:02;;;;;;;32.23;15.00;;;-2.90;94.30;;;;;;4998706;28;20686;-86
2022/12/18 09:04:29;;;;;;;28.63;14.80;;;-2.90;94.30;;;;;;5007368;28;20291;-81
2022/12/18 09:07:07;;;;;;;28.57;14.60;;;-2.90;94.30;;;;;;5005972;28;20309;-82
2022/12/18 09:13:15;;;;;;;29.50;14.53;;;-2.60;93.50;;;;;;5008073;28;20186;-85
2022/12/18 09:16:25;;;;;;;27.97;14.63;;;-2.70;93.50;;;;;;5005833;28;20206;-85
2022/12/18 09:19:03;;;;;;;26.93;14.03;;;-2.70;93.70;;;;;;5009570;28;20191;-84
2022/12/18 09:21:49;;;;;;;27.67;13.90;;;-2.70;93.90;;;;;;5007915;28;20552;-83
2022/12/18 09:27:43;;;;;;;26.77;14.13;;;-2.40;93.50;;;;;;5001944;28;20266;-83
2022/12/18 09:30:11;;;;;;;30.10;15.00;;;-2.40;92.70;;;;;;5006478;28;20287;-80
2022/12/18 09:33:30;;;;;;;31.70;14.23;;;-2.40;92.70;;;;;;5010504;28;20291;-83
2022/12/18 09:39:39;;;;;;;29.13;14.33;;;-2.50;92.60;;;;;;5014587;28;20626;-83
2022/12/18 09:42:22;;;;;;;28.97;14.30;;;-2.40;92.30;;;;;;5010994;28;20281;-81
2022/12/18 09:45:19;;;;;;;31.03;14.40;;;-2.40;92.50;;;;;;5005546;28;20230;-82
2022/12/18 09:47:51;;;;;;;27.57;14.13;;;-2.30;92.20;;;;;;4995410;28;20203;-82
2022/12/18 09:54:18;;;;;;;29.80;15.40;;;-2.30;92.30;;;;;;5009282;28;20229;-82
2022/12/18 09:57:02;;;;;;;26.33;13.50;;;-2.20;92.10;;;;;;5014944;28;20242;-82
2022/12/18 09:59:39;;;;;;;26.83;14.07;;;-2.20;92.20;;;;;;5012462;28;20210;-82
2022/12/18 10:02:22;;;;;;;28.20;14.50;;;-2.30;92.20;;;;;;5002197;28;20203;-82
2022/12/18 10:05:00;;;;;;;28.53;14.73;;;-2.30;91.90;;;;;;4997685;28;20286;-82
2022/12/18 10:07:51;;;;;;;28.57;14.60;;;-2.40;92.20;;;;;;4998873;28;20227;-85
2022/12/18 10:10:30;;;;;;;29.17;14.70;;;-2.50;92.60;;;;;;5001608;28;20211;-82
2022/12/18 10:13:21;;;;;;;26.70;13.47;;;-2.40;93.10;;;;;;4996963;28;20204;-81
2022/12/18 10:16:04;;;;;;;25.70;13.33;;;-2.20;92.20;;;;;;5000742;28;20211;-82
2022/12/18 10:23:59;;;;;;;28.47;14.43;;;-2.30;91.80;;;;;;5182159;23;20581;-84
2022/12/18 10:26:26;;;;;;;26.70;14.50;;;-2.10;91.90;;;;;;4944201;28;20216;-83
2022/12/18 10:28:59;;;;;;;25.00;13.40;;;-2.10;90.90;;;;;;4948352;28;20900;-83
2022/12/18 10:31:31;;;;;;;25.30;13.40;;;-2.20;91.20;;;;;;4947669;28;20210;-83
2022/12/18 10:33:58;;;;;;;27.97;14.07;;;-2.30;91.40;;;;;;4950028;28;20284;-83
2022/12/18 10:36:25;;;;;;;26.23;14.40;;;-2.20;91.80;;;;;;4947702;28;20212;-83
2022/12/18 10:39:16;;;;;;;27.20;14.33;;;-2.00;91.60;;;;;;4951719;28;20207;-83
2022/12/18 10:41:43;;;;;;;28.07;14.73;;;-2.00;91.20;;;;;;4949682;28;20594;-83
2022/12/18 10:44:22;;;;;;;30.17;14.00;;;-2.10;91.50;;;;;;4951642;28;20292;-82
2022/12/18 10:47:40;;;;;;;25.90;13.37;;;-2.40;92.20;;;;;;4948136;28;20229;-81
2022/12/18 10:50:25;;;;;;;27.33;13.73;;;-2.20;91.80;;;;;;4949250;28;20591;-81
2022/12/18 10:52:56;;;;;;;24.73;13.13;;;-2.20;91.00;;;;;;4951006;28;20283;-82
2022/12/18 10:55:28;;;;;;;27.00;14.37;;;-2.20;91.60;;;;;;4956268;28;20209;-82
2022/12/18 10:58:24;;;;;;;24.37;13.47;;;-2.10;91.50;;;;;;4955415;28;20647;-80
2022/12/18 11:01:13;;;;;;;28.60;14.13;;;-2.10;90.90;;;;;;4946296;28;20211;-81
2022/12/18 11:03:45;;;;;;;25.43;13.17;;;-1.90;91.20;;;;;;4953622;28;20222;-81
2022/12/18 11:06:15;;;;;;;24.93;13.60;;;-1.70;90.40;;;;;;4950286;28;20224;-81
2022/12/18 11:09:20;;;;;;;28.77;13.37;;;-1.90;90.40;;;;;;4951560;28;20296;-82
2022/12/18 11:11:52;;;;;;;27.20;13.70;;;-2.10;90.90;;;;;;4948818;28;20482;-81
2022/12/18 11:14:27;;;;;;;26.57;13.40;;;-2.10;91.30;;;;;;4954472;28;20217;-82
2022/12/18 11:16:57;;;;;;;26.77;14.07;;;-1.90;92.20;;;;;;4953788;28;20309;-81
2022/12/18 11:19:34;;;;;;;26.03;14.27;;;-1.80;90.70;;;;;;4954644;28;20206;-83
2022/12/18 11:22:03;;;;;;;26.33;14.30;;;-1.70;91.00;;;;;;4916713;28;1092289;-82
2022/12/18 11:24:37;;;;;;;25.40;13.47;;;-1.70;91.00;;;;;;4954469;28;20210;-82
2022/12/18 11:27:36;;;;;;;27.73;14.43;;;-1.70;90.20;;;;;;4953144;28;20227;-81
2022/12/18 11:30:16;;;;;;;26.90;13.87;;;-2.00;91.00;;;;;;4951553;28;20204;-82
2022/12/18 11:32:48;;;;;;;24.17;13.47;;;-1.90;90.90;;;;;;4955404;28;20207;-81
2022/12/18 11:35:36;;;;;;;24.43;13.67;;;-2.00;90.90;;;;;;4955437;28;20241;-82
2022/12/18 11:38:11;;;;;;;26.73;14.00;;;-2.10;91.20;;;;;;4954314;28;20209;-81
2022/12/18 11:40:47;;;;;;;28.13;14.13;;;-2.10;91.30;;;;;;4954154;28;20295;-82
2022/12/18 11:43:26;;;;;;;26.93;14.50;;;-2.00;91.20;;;;;;4954135;28;20304;-82
2022/12/18 11:46:10;;;;;;;28.27;13.83;;;-1.90;91.50;;;;;;4952358;28;20267;-82
2022/12/18 11:48:45;;;;;;;25.83;13.93;;;-1.90;90.90;;;;;;4954136;28;20682;-83
2022/12/18 11:51:34;;;;;;;26.57;14.13;;;-2.10;91.10;;;;;;4952957;28;20553;-89
2022/12/18 11:54:13;;;;;;;25.53;13.20;;;-2.30;91.90;;;;;;4951837;28;20201;-85
2022/12/18 11:56:47;;;;;;;25.97;13.57;;;-2.40;92.40;;;;;;4954911;28;20214;-81
2022/12/18 11:59:26;;;;;;;25.23;13.33;;;-2.20;92.20;;;;;;4955528;28;20228;-81
2022/12/18 12:02:31;;;;;;;25.43;13.07;;;-2.10;92.00;;;;;;4951306;28;20210;-80
2022/12/18 12:05:14;;;;;;;23.40;13.10;;;-1.90;90.90;;;;;;4948515;28;20211;-81
2022/12/18 12:08:04;;;;;;;24.33;12.80;;;-1.90;90.80;;;;;;4956691;28;20228;-80
2022/12/18 12:10:50;;;;;;;24.13;13.07;;;-1.70;90.50;;;;;;4954456;28;20241;-82
2022/12/18 12:13:38;;;;;;;25.37;14.43;;;-1.90;90.40;;;;;;4951794;28;20206;-81
2022/12/18 12:16:26;;;;;;;24.57;12.67;;;-2.10;91.20;;;;;;4953213;28;20205;-80
2022/12/18 12:19:25;;;;;;;25.23;13.10;;;-1.90;90.50;;;;;;4955679;28;20270;-80
2022/12/18 12:22:04;;;;;;;23.80;12.70;;;-1.80;90.90;;;;;;4963178;28;20740;-81
2022/12/18 12:24:55;;;;;;;24.63;13.33;;;-1.70;90.60;;;;;;4960108;28;20292;-83
2022/12/18 12:27:37;;;;;;;26.33;13.70;;;-2.20;90.90;;;;;;4956632;28;20232;-82
2022/12/18 12:30:29;;;;;;;23.97;12.97;;;-2.00;91.10;;;;;;4954437;28;20675;-84
2022/12/18 12:33:14;;;;;;;25.07;12.73;;;-2.00;90.90;;;;;;4953623;29;20213;-82
2022/12/18 12:35:50;;;;;;;24.37;13.43;;;-2.10;91.20;;;;;;4955715;28;20223;-82
2022/12/18 12:38:42;;;;;;;22.97;12.80;;;-2.30;91.50;;;;;;4956093;28;20998;-82
2022/12/18 12:44:15;;;;;;;25.90;12.73;;;-2.10;91.10;;;;;;4954768;28;20212;-84
2022/12/18 12:46:44;;;;;;;26.70;13.67;;;-2.30;91.70;;;;;;4948576;28;20732;-85
2022/12/18 12:49:22;;;;;;;27.57;12.63;;;-2.30;92.10;;;;;;4953632;28;20280;-82
2022/12/18 12:51:57;;;;;;;24.53;12.97;;;-2.10;92.70;;;;;;4950023;28;20616;-85
2022/12/18 12:54:31;;;;;;;27.43;13.10;;;-2.60;92.00;;;;;;4952716;28;20673;-83
2022/12/18 12:57:05;;;;;;;27.87;13.63;;;-2.50;92.40;;;;;;4952220;28;20219;-82
2022/12/18 12:59:50;;;;;;;26.77;13.33;;;-2.30;92.50;;;;;;4954968;28;20247;-82
2022/12/18 13:02:28;;;;;;;24.87;13.00;;;-2.20;91.80;;;;;;4947923;28;20821;-81
2022/12/18 13:05:19;;;;;;;31.50;14.23;;;-2.20;91.60;;;;;;4952564;28;20236;-81
2022/12/18 13:07:51;;;;;;;26.67;13.67;;;-2.30;91.90;;;;;;4953200;28;20216;-81
2022/12/18 13:10:40;;;;;;;22.40;12.40;;;-2.20;91.20;;;;;;4952093;28;20201;-80
2022/12/18 13:13:21;;;;;;;27.20;12.83;;;-2.10;91.10;;;;;;4956522;28;20638;-80
2022/12/18 13:16:04;;;;;;;29.83;14.37;;;-2.20;91.40;;;;;;4953103;28;20197;-81
2022/12/18 13:18:32;;;;;;;28.10;14.23;;;-2.10;91.40;;;;;;4954261;28;20622;-82
2022/12/18 13:21:23;;;;;;;28.33;13.80;;;-2.00;91.10;;;;;;4953876;28;20205;-81
2022/12/18 13:23:56;;;;;;;28.40;12.83;;;-2.00;91.30;;;;;;4955209;28;20803;-81
2022/12/18 13:26:38;;;;;;;25.90;13.07;;;-1.90;91.30;;;;;;4953660;28;20205;-82
2022/12/18 13:29:52;;;;;;;26.17;12.70;;;-2.00;90.90;;;;;;4954205;28;20208;-81
2022/12/18 13:32:21;;;;;;;25.33;12.50;;;-2.10;91.20;;;;;;4957093;28;20209;-82
2022/12/18 13:34:48;;;;;;;28.10;14.43;;;-2.20;91.80;;;;;;4953303;28;20639;-83
2022/12/18 13:37:48;;;;;;;29.03;14.60;;;-2.40;92.10;;;;;;4951495;28;20742;-81
2022/12/18 13:40:58;;;;;;;27.03;13.60;;;-2.40;92.40;;;;;;4948810;28;20217;-81
2022/12/18 13:43:30;;;;;;;25.60;13.50;;;-2.30;92.10;;;;;;4952411;28;20295;-82
2022/12/18 13:46:20;;;;;;;26.40;13.40;;;-2.10;92.10;;;;;;4953765;28;20213;-82
2022/12/18 13:48:56;;;;;;;29.03;14.00;;;-2.20;92.10;;;;;;4952800;28;20627;-81
2022/12/18 13:51:24;;;;;;;24.77;13.70;;;-2.20;92.00;;;;;;4953601;28;20296;-81
2022/12/18 13:54:03;;;;;;;26.03;13.03;;;-2.20;92.20;;;;;;4953571;28;20232;-80
2022/12/18 13:56:33;;;;;;;26.90;13.87;;;-2.30;92.40;;;;;;4950213;28;20259;-80
2022/12/18 13:59:28;;;;;;;29.50;14.77;;;-2.30;92.60;;;;;;4950612;28;20201;-80
2022/12/18 14:01:58;;;;;;;28.97;13.30;;;-2.40;92.70;;;;;;4953959;28;20275;-82
2022/12/18 14:04:37;;;;;;;29.87;13.60;;;-2.50;92.90;;;;;;4948429;28;20205;-84
2022/12/18 14:07:07;;;;;;;30.57;15.00;;;-2.50;92.90;;;;;;4951154;28;20228;-82
2022/12/18 14:09:38;;;;;;;26.23;14.33;;;-2.70;93.50;;;;;;4949053;28;20203;-83
2022/12/18 14:15:21;;;;;;;27.67;14.90;;;-2.70;93.50;;;;;;4950634;28;20208;-83
2022/12/18 14:18:20;;;;;;;25.63;13.17;;;-2.80;93.80;;;;;;4947788;28;20485;-83
2022/12/18 14:20:51;;;;;;;26.70;14.00;;;-2.80;94.00;;;;;;4946826;28;20212;-83
2022/12/18 14:23:30;;;;;;;28.33;13.70;;;-2.70;94.10;;;;;;4951685;28;20312;-83
2022/12/18 14:25:57;;;;;;;28.97;13.40;;;-2.60;93.90;;;;;;4950517;28;20340;-82
2022/12/18 14:28:26;;;;;;;28.73;14.77;;;-2.60;93.60;;;;;;4949370;28;20304;-82
2022/12/18 14:30:56;;;;;;;28.50;14.67;;;-2.60;93.50;;;;;;4947809;28;20649;-83
2022/12/18 14:33:25;;;;;;;29.87;15.07;;;-2.80;93.90;;;;;;4949202;28;20217;-82
2022/12/18 14:35:58;;;;;;;29.07;14.53;;;-3.00;94.70;;;;;;4949248;28;20216;-81
2022/12/18 14:38:29;;;;;;;28.43;14.90;;;-3.00;95.00;;;;;;4933558;28;20205;-82
2022/12/18 14:41:03;;;;;;;28.03;14.73;;;-2.90;94.90;;;;;;4949781;28;20205;-82
2022/12/18 14:43:33;;;;;;;29.73;14.70;;;-2.80;94.40;;;;;;4950279;28;20209;-81
2022/12/18 14:46:06;;;;;;;29.63;15.00;;;-2.80;94.40;;;;;;4950356;28;20324;-82
2022/12/18 14:49:01;;;;;;;30.27;15.50;;;-2.90;94.50;;;;;;4948202;28;20345;-82
2022/12/18 14:51:38;;;;;;;28.17;14.23;;;-2.90;94.60;;;;;;4946192;28;20683;-82
2022/12/18 14:54:17;;;;;;;28.30;14.80;;;-2.90;95.00;;;;;;4948766;28;20657;-80
2022/12/18 14:56:51;;;;;;;32.17;16.23;;;-2.90;94.90;;;;;;4947425;28;20711;-81
2022/12/18 14:59:37;;;;;;;29.97;15.17;;;-2.90;95.40;;;;;;4949056;28;20581;-81
2022/12/18 15:02:17;;;;;;;31.83;15.07;;;-2.80;95.00;;;;;;4950384;28;20236;-83
2022/12/18 15:05:00;;;;;;;28.70;14.33;;;-2.70;94.80;;;;;;4950537;28;20288;-82
2022/12/18 15:07:28;;;;;;;27.53;14.50;;;-2.70;94.60;;;;;;4946292;28;20656;-85
2022/12/18 15:10:11;;;;;;;31.70;14.63;;;-2.90;94.40;;;;;;4950548;28;20220;-80
2022/12/18 15:13:18;;;;;;;30.87;14.73;;;-3.10;94.60;;;;;;4948583;28;20221;-82
2022/12/18 15:16:03;;;;;;;29.43;13.63;;;-3.10;95.20;;;;;;4950195;28;20243;-81
2022/12/18 15:18:42;;;;;;;31.03;14.63;;;-3.30;95.30;;;;;;4949972;28;20209;-79
2022/12/18 15:21:19;;;;;;;27.80;14.57;;;-3.20;95.70;;;;;;4955891;28;20229;-79
2022/12/18 15:24:02;;;;;;;29.67;15.13;;;-3.20;95.30;;;;;;4948536;28;20803;-79
2022/12/18 15:26:38;;;;;;;27.30;13.47;;;-3.20;95.60;;;;;;4950979;28;20201;-78
2022/12/18 15:29:20;;;;;;;29.90;14.67;;;-3.20;95.50;;;;;;4951134;28;20209;-80
2022/12/18 15:32:01;;;;;;;26.30;13.77;;;-3.20;95.20;;;;;;4951073;28;20650;-83
2022/12/18 15:34:29;;;;;;;29.53;14.70;;;-3.30;95.20;;;;;;4949575;28;20207;-80
2022/12/18 15:37:01;;;;;;;29.97;14.77;;;-3.30;95.50;;;;;;4950833;28;20213;-80
2022/12/18 15:39:28;;;;;;;35.07;15.40;;;-3.40;95.40;;;;;;4952998;28;20296;-83
2022/12/18 15:45:26;;;;;;;31.77;15.03;;;-3.20;95.80;;;;;;4938549;28;20216;-82
2022/12/18 15:47:53;;;;;;;31.37;15.37;;;-3.20;95.20;;;;;;4952523;28;20316;-83
2022/12/18 15:50:27;;;;;;;30.73;14.57;;;-3.20;95.20;;;;;;4953463;28;20588;-80
2022/12/18 15:52:55;;;;;;;27.67;14.57;;;-3.20;95.60;;;;;;4951396;28;20209;-80
2022/12/18 15:58:10;;;;;;;32.80;15.67;;;-3.30;95.50;;;;;;4953087;28;20653;-81
2022/12/18 16:00:43;;;;;;;31.13;15.77;;;-3.40;96.30;;;;;;4953870;28;20209;-80
2022/12/18 16:03:11;;;;;;;28.87;15.00;;;-3.20;96.00;;;;;;4953508;28;20227;-80
2022/12/18 16:05:39;;;;;;;35.10;17.13;;;-3.30;95.60;;;;;;4938647;29;20929;-83
2022/12/18 16:08:06;;;;;;;29.27;13.87;;;-3.50;95.90;;;;;;4954501;28;20243;-84
2022/12/18 16:10:37;;;;;;;31.33;16.07;;;-3.40;95.50;;;;;;4954530;28;20269;-84
2022/12/18 16:13:24;;;;;;;36.43;16.67;;;-3.40;95.90;;;;;;4955566;28;20559;-82